Elsberry, MO

5:36 PM CDT on May 05, 2015 (GMT -0500)
Blue Ridge | | Change Station
CLOSE
Current Station
Personal Weather Station
Location: Hardin, IL
Elevation: 748 ft
Nearby Weather Stations

Elev 748 ft 39.15 °N, 90.65 °W | Updated 2 minutes ago

Partly Cloudy
Partly Cloudy
82.0 °F
Feels Like 82 °F
N
2.0
Wind Variable Wind from WNW
Gusts 9.0 mph

Today
High -- | Low -- °F
--% Chance of Precip.
Yesterday
High -- | Low -- °F
Precip. -- in
6:00 AM 8:00 PM
Full, 97% visible
Pressure 30.08 in
Visibility 10.0 miles
Clouds Overcast 10000 ft
Heat Index 82 °F
Dew Point 60 °F
Humidity 48%
Rainfall 0.00 in
Snow Depth Not available.
UV 1 out of 12
Pollen 8.10 out of 12
Air Quality Not available.
Flu Activity Sporadic
METAR KSET 052154Z AUTO 20010KT 10SM OVC100 28/12 A3009 RMK AO2 SLP185 T02780122

More Conditions Fewer Conditions

Pressure 30.08 in
Visibility 10.0 miles
Clouds Overcast 10000 ft
Heat Index 82 °F
Dew Point 60 °F
Humidity 48%
Rainfall 0.00 in
Snow Depth Not available.
UV 1 out of 12
Pollen 8.10 out of 12
Air Quality Not available.
Flu Activity Sporadic
METAR KSET 052154Z AUTO 20010KT 10SM OVC100 28/12 A3009 RMK AO2 SLP185 T02780122

More Conditions Fewer Conditions

10-Day Weather Forecast

Almanac

Astronomy

May. 05, 2015 Rise Set
Actual Time
Civil Twilight
Nautical Twilight
Astronomical Twilight
Moon
Length of Visible Light
Length of Day
Tomorrow will be .
, % of the Moon is Illuminated

Today's Extremes

State Highs State Lows

Community

WunderPhotos

Upload Photos

1,818,998 photos uploaded!

WunderBlogs® & News

Nearby

Air Quality

  Air Quality AQ Index Pollutant
Not available.

Snow Depth

Station Depth Elevation

Earthquake Activity

City Distance Mag. Time & Date
Minimum magnitude displayed is 2.5.

Coastal Water Temperatures

Place Temperature

Stations

Nearby Weather Stations

Station Location Temp. Windchill Dew Point Humidity Wind Precip. Elev Updated Type